sensor_id;sensor_type;location;lat;lon;timestamp;pressure;altitude;pressure_sealevel;temperature;humidity
73651;BME280;61944;52.538;6.108;2024-01-30T00:00:54;102479.59;;;7.12;100.00
73651;BME280;61944;52.538;6.108;2024-01-30T00:03:19;102474.47;;;7.06;100.00
73651;BME280;61944;52.538;6.108;2024-01-30T00:05:44;102476.94;;;7.07;100.00
73651;BME280;61944;52.538;6.108;2024-01-30T00:08:10;102472.03;;;7.04;100.00
73651;BME280;61944;52.538;6.108;2024-01-30T00:10:35;102465.31;;;7.05;100.00
73651;BME280;61944;52.538;6.108;2024-01-30T00:13:01;102470.38;;;7.03;100.00
73651;BME280;61944;52.538;6.108;2024-01-30T00:15:27;102464.28;;;7.01;100.00
73651;BME280;61944;52.538;6.108;2024-01-30T00:17:53;102465.94;;;7.02;100.00
73651;BME280;61944;52.538;6.108;2024-01-30T00:20:18;102469.25;;;7.04;100.00
73651;BME280;61944;52.538;6.108;2024-01-30T00:22:44;102465.59;;;7.04;100.00
73651;BME280;61944;52.538;6.108;2024-01-30T00:25:09;102470.81;;;6.97;100.00
73651;BME280;61944;52.538;6.108;2024-01-30T00:27:34;102469.47;;;6.94;100.00
73651;BME280;61944;52.538;6.108;2024-01-30T00:30:00;102467.81;;;6.93;100.00
73651;BME280;61944;52.538;6.108;2024-01-30T00:32:25;102466.69;;;6.94;100.00
73651;BME280;61944;52.538;6.108;2024-01-30T00:34:50;102468.44;;;6.90;100.00
73651;BME280;61944;52.538;6.108;2024-01-30T00:37:16;102464.00;;;6.89;100.00
73651;BME280;61944;52.538;6.108;2024-01-30T00:39:41;102461.72;;;6.91;100.00
73651;BME280;61944;52.538;6.108;2024-01-30T00:42:07;102456.91;;;6.83;100.00
73651;BME280;61944;52.538;6.108;2024-01-30T00:44:35;102461.56;;;6.87;100.00
73651;BME280;61944;52.538;6.108;2024-01-30T00:47:02;102464.00;;;6.89;100.00
73651;BME280;61944;52.538;6.108;2024-01-30T00:49:28;102462.38;;;6.88;100.00
73651;BME280;61944;52.538;6.108;2024-01-30T00:51:53;102452.50;;;6.82;100.00
73651;BME280;61944;52.538;6.108;2024-01-30T00:54:18;102459.09;;;6.86;100.00
73651;BME280;61944;52.538;6.108;2024-01-30T00:56:44;102456.41;;;6.81;100.00
73651;BME280;61944;52.538;6.108;2024-01-30T00:59:09;102456.41;;;6.81;100.00
73651;BME280;61944;52.538;6.108;2024-01-30T01:01:34;102463.72;;;6.77;100.00
73651;BME280;61944;52.538;6.108;2024-01-30T01:04:00;102453.09;;;6.79;100.00
73651;BME280;61944;52.538;6.108;2024-01-30T01:06:25;102456.75;;;6.79;100.00
73651;BME280;61944;52.538;6.108;2024-01-30T01:08:50;102456.66;;;6.70;100.00
73651;BME280;61944;52.538;6.108;2024-01-30T01:11:16;102454.78;;;6.80;100.00
73651;BME280;61944;52.538;6.108;2024-01-30T01:13:41;102449.19;;;6.80;100.00
73651;BME280;61944;52.538;6.108;2024-01-30T01:16:06;102449.19;;;6.80;100.00
73651;BME280;61944;52.538;6.108;2024-01-30T01:18:32;102452.50;;;6.82;100.00
73651;BME280;61944;52.538;6.108;2024-01-30T01:20:57;102440.34;;;6.78;100.00
73651;BME280;61944;52.538;6.108;2024-01-30T01:23:22;102440.56;;;6.81;100.00
73651;BME280;61944;52.538;6.108;2024-01-30T01:25:48;102436.53;;;6.74;100.00
73651;BME280;61944;52.538;6.108;2024-01-30T01:28:13;102433.75;;;6.74;100.00
73651;BME280;61944;52.538;6.108;2024-01-30T01:30:38;102431.19;;;6.77;100.00
73651;BME280;61944;52.538;6.108;2024-01-30T01:33:04;102438.19;;;6.75;100.00
73651;BME280;61944;52.538;6.108;2024-01-30T01:35:29;102434.41;;;6.70;100.00
73651;BME280;61944;52.538;6.108;2024-01-30T01:37:55;102430.97;;;6.74;100.00
73651;BME280;61944;52.538;6.108;2024-01-30T01:40:24;102430.97;;;6.74;100.00
73651;BME280;61944;52.538;6.108;2024-01-30T01:42:56;102440.13;;;6.74;100.00
73651;BME280;61944;52.538;6.108;2024-01-30T01:45:21;102435.72;;;6.73;100.00
73651;BME280;61944;52.538;6.108;2024-01-30T01:47:48;102433.56;;;6.70;100.00
73651;BME280;61944;52.538;6.108;2024-01-30T01:50:16;102421.00;;;6.72;100.00
73651;BME280;61944;52.538;6.108;2024-01-30T01:52:48;102413.25;;;6.69;100.00
73651;BME280;61944;52.538;6.108;2024-01-30T01:55:15;102411.50;;;6.74;100.00
73651;BME280;61944;52.538;6.108;2024-01-30T01:57:41;102418.72;;;6.75;100.00
73651;BME280;61944;52.538;6.108;2024-01-30T02:00:08;102412.94;;;6.71;100.00
73651;BME280;61944;52.538;6.108;2024-01-30T02:02:35;102421.59;;;6.69;100.00
73651;BME280;61944;52.538;6.108;2024-01-30T02:05:01;102409.97;;;6.67;100.00
73651;BME280;61944;52.538;6.108;2024-01-30T02:07:30;102418.97;;;6.64;100.00
73651;BME280;61944;52.538;6.108;2024-01-30T02:09:56;102415.03;;;6.65;100.00
73651;BME280;61944;52.538;6.108;2024-01-30T02:12:21;102419.97;;;6.68;100.00
73651;BME280;61944;52.538;6.108;2024-01-30T02:14:47;102419.97;;;6.68;100.00
73651;BME280;61944;52.538;6.108;2024-01-30T02:17:13;102411.13;;;6.66;100.00
73651;BME280;61944;52.538;6.108;2024-01-30T02:19:39;102407.31;;;6.62;100.00
73651;BME280;61944;52.538;6.108;2024-01-30T02:22:05;102401.09;;;6.65;100.00
73651;BME280;61944;52.538;6.108;2024-01-30T02:24:31;102402.25;;;6.64;100.00
73651;BME280;61944;52.538;6.108;2024-01-30T02:26:56;102398.47;;;6.60;100.00
73651;BME280;61944;52.538;6.108;2024-01-30T02:29:22;102394.53;;;6.61;100.00
73651;BME280;61944;52.538;6.108;2024-01-30T02:31:47;102390.72;;;6.57;100.00
73651;BME280;61944;52.538;6.108;2024-01-30T02:34:13;102387.94;;;6.57;100.00
73651;BME280;61944;52.538;6.108;2024-01-30T02:36:38;102383.53;;;6.56;100.00
73651;BME280;61944;52.538;6.108;2024-01-30T02:39:07;102383.00;;;6.54;100.00
73651;BME280;61944;52.538;6.108;2024-01-30T02:41:32;102389.69;;;6.53;100.00
73651;BME280;61944;52.538;6.108;2024-01-30T02:43:57;102383.53;;;6.56;100.00
73651;BME280;61944;52.538;6.108;2024-01-30T02:46:23;102395.25;;;6.53;100.00
73651;BME280;61944;52.538;6.108;2024-01-30T02:48:48;102390.22;;;6.55;100.00
73651;BME280;61944;52.538;6.108;2024-01-30T02:51:13;102389.59;;;6.58;100.00
73651;BME280;61944;52.538;6.108;2024-01-30T02:53:39;102395.97;;;6.59;100.00
73651;BME280;61944;52.538;6.108;2024-01-30T02:56:04;102383.53;;;6.56;100.00
73651;BME280;61944;52.538;6.108;2024-01-30T02:58:31;102381.88;;;6.55;100.00
73651;BME280;61944;52.538;6.108;2024-01-30T03:00:56;102392.69;;;6.57;100.00
73651;BME280;61944;52.538;6.108;2024-01-30T03:03:21;102383.84;;;6.55;100.00
73651;BME280;61944;52.538;6.108;2024-01-30T03:05:47;102384.97;;;6.54;100.00
73651;BME280;61944;52.538;6.108;2024-01-30T03:08:12;102389.69;;;6.53;100.00
73651;BME280;61944;52.538;6.108;2024-01-30T03:10:37;102381.88;;;6.55;100.00
73651;BME280;61944;52.538;6.108;2024-01-30T03:13:03;102384.13;;;6.53;100.00
73651;BME280;61944;52.538;6.108;2024-01-30T03:15:28;102380.03;;;6.50;100.00
73651;BME280;61944;52.538;6.108;2024-01-30T03:17:54;102379.41;;;6.54;100.00
73651;BME280;61944;52.538;6.108;2024-01-30T03:20:19;102367.78;;;6.51;100.00
73651;BME280;61944;52.538;6.108;2024-01-30T03:22:44;102364.16;;;6.51;100.00
73651;BME280;61944;52.538;6.108;2024-01-30T03:25:10;102350.75;;;6.53;100.00
73651;BME280;61944;52.538;6.108;2024-01-30T03:27:35;102349.13;;;6.52;100.00
73651;BME280;61944;52.538;6.108;2024-01-30T03:30:01;102355.38;;;6.58;100.00
73651;BME280;61944;52.538;6.108;2024-01-30T03:32:27;102351.78;;;6.57;100.00
73651;BME280;61944;52.538;6.108;2024-01-30T03:34:52;102338.38;;;6.59;100.00
73651;BME280;61944;52.538;6.108;2024-01-30T03:37:17;102337.25;;;6.60;100.00
73651;BME280;61944;52.538;6.108;2024-01-30T03:39:43;102338.88;;;6.61;100.00
73651;BME280;61944;52.538;6.108;2024-01-30T03:42:08;102342.81;;;6.60;100.00
73651;BME280;61944;52.538;6.108;2024-01-30T03:44:33;102334.31;;;6.65;100.00
73651;BME280;61944;52.538;6.108;2024-01-30T03:46:58;102328.25;;;6.63;100.00
73651;BME280;61944;52.538;6.108;2024-01-30T03:49:24;102320.91;;;6.67;100.00
73651;BME280;61944;52.538;6.108;2024-01-30T03:51:49;102326.78;;;6.66;100.00
73651;BME280;61944;52.538;6.108;2024-01-30T03:54:15;102329.28;;;6.67;100.00
73651;BME280;61944;52.538;6.108;2024-01-30T03:56:40;102344.00;;;6.68;100.00
73651;BME280;61944;52.538;6.108;2024-01-30T03:59:05;102347.78;;;6.72;100.00
73651;BME280;61944;52.538;6.108;2024-01-30T04:01:31;102339.44;;;6.72;100.00
73651;BME280;61944;52.538;6.108;2024-01-30T04:03:56;102315.25;;;6.72;100.00
73651;BME280;61944;52.538;6.108;2024-01-30T04:06:21;102312.97;;;6.75;100.00
73651;BME280;61944;52.538;6.108;2024-01-30T04:08:47;102301.00;;;6.74;100.00
73651;BME280;61944;52.538;6.108;2024-01-30T04:11:12;102305.09;;;6.77;100.00
73651;BME280;61944;52.538;6.108;2024-01-30T04:13:37;102302.66;;;6.75;100.00
73651;BME280;61944;52.538;6.108;2024-01-30T04:16:03;102309.22;;;6.79;100.00
73651;BME280;61944;52.538;6.108;2024-01-30T04:18:29;102306.41;;;6.70;100.00
73651;BME280;61944;52.538;6.108;2024-01-30T04:20:54;102315.75;;;6.75;100.00
73651;BME280;61944;52.538;6.108;2024-01-30T04:23:20;102312.84;;;6.80;100.00
73651;BME280;61944;52.538;6.108;2024-01-30T04:25:46;102299.41;;;6.82;100.00
73651;BME280;61944;52.538;6.108;2024-01-30T04:28:12;102312.19;;;6.83;100.00
73651;BME280;61944;52.538;6.108;2024-01-30T04:30:38;102296.44;;;6.78;100.00
73651;BME280;61944;52.538;6.108;2024-01-30T04:33:04;102297.66;;;6.86;100.00
73651;BME280;61944;52.538;6.108;2024-01-30T04:35:29;102297.84;;;6.89;100.00
73651;BME280;61944;52.538;6.108;2024-01-30T04:37:54;102300.28;;;6.91;100.00
73651;BME280;61944;52.538;6.108;2024-01-30T04:40:20;102308.31;;;6.92;100.00
73651;BME280;61944;52.538;6.108;2024-01-30T04:42:46;102305.03;;;6.90;100.00
73651;BME280;61944;52.538;6.108;2024-01-30T04:45:11;102300.16;;;6.96;100.00
73651;BME280;61944;52.538;6.108;2024-01-30T04:47:37;102302.44;;;6.94;100.00
73651;BME280;61944;52.538;6.108;2024-01-30T04:50:02;102306.34;;;6.93;100.00
73651;BME280;61944;52.538;6.108;2024-01-30T04:52:29;102303.25;;;6.95;100.00
73651;BME280;61944;52.538;6.108;2024-01-30T04:54:55;102311.41;;;6.91;100.00
73651;BME280;61944;52.538;6.108;2024-01-30T04:57:20;102312.44;;;6.95;100.00
73651;BME280;61944;52.538;6.108;2024-01-30T04:59:45;102317.38;;;6.98;100.00
73651;BME280;61944;52.538;6.108;2024-01-30T05:02:11;102316.22;;;6.99;100.00
73651;BME280;61944;52.538;6.108;2024-01-30T05:04:36;102316.41;;;7.03;100.00
73651;BME280;61944;52.538;6.108;2024-01-30T05:07:02;102316.09;;;7.04;100.00
73651;BME280;61944;52.538;6.108;2024-01-30T05:09:27;102307.25;;;7.02;100.00
73651;BME280;61944;52.538;6.108;2024-01-30T05:11:53;102308.88;;;7.03;100.00
73651;BME280;61944;52.538;6.108;2024-01-30T05:14:19;102304.97;;;7.04;100.00
73651;BME280;61944;52.538;6.108;2024-01-30T05:16:44;102306.91;;;7.04;100.00
73651;BME280;61944;52.538;6.108;2024-01-30T05:19:15;102300.03;;;7.01;100.00
73651;BME280;61944;52.538;6.108;2024-01-30T05:21:41;102284.31;;;7.05;100.00
73651;BME280;61944;52.538;6.108;2024-01-30T05:24:06;102282.50;;;7.01;100.00
73651;BME280;61944;52.538;6.108;2024-01-30T05:26:32;102282.69;;;7.04;100.00
73651;BME280;61944;52.538;6.108;2024-01-30T05:28:57;102301.03;;;7.05;100.00
73651;BME280;61944;52.538;6.108;2024-01-30T05:31:23;102298.56;;;7.04;100.00
73651;BME280;61944;52.538;6.108;2024-01-30T05:33:51;102292.19;;;7.03;100.00
73651;BME280;61944;52.538;6.108;2024-01-30T05:36:16;102286.16;;;7.10;100.00
73651;BME280;61944;52.538;6.108;2024-01-30T05:38:42;102312.06;;;7.10;100.00
73651;BME280;61944;52.538;6.108;2024-01-30T05:41:08;102307.59;;;7.09;100.00
73651;BME280;61944;52.538;6.108;2024-01-30T05:43:33;102313.19;;;7.09;100.00
73651;BME280;61944;52.538;6.108;2024-01-30T05:45:59;102323.50;;;7.09;100.00
73651;BME280;61944;52.538;6.108;2024-01-30T05:48:24;102321.47;;;7.01;100.00
73651;BME280;61944;52.538;6.108;2024-01-30T05:50:49;102316.22;;;6.99;100.00
73651;BME280;61944;52.538;6.108;2024-01-30T05:53:14;102320.66;;;7.00;100.00
73651;BME280;61944;52.538;6.108;2024-01-30T05:55:40;102320.97;;;6.99;100.00
73651;BME280;61944;52.538;6.108;2024-01-30T05:58:06;102321.28;;;6.97;100.00
73651;BME280;61944;52.538;6.108;2024-01-30T06:00:31;102311.81;;;6.98;100.00
73651;BME280;61944;52.538;6.108;2024-01-30T06:02:56;102307.56;;;7.01;100.00
73651;BME280;61944;52.538;6.108;2024-01-30T06:05:22;102300.03;;;7.01;100.00
73651;BME280;61944;52.538;6.108;2024-01-30T06:07:47;102292.81;;;7.00;100.00
73651;BME280;61944;52.538;6.108;2024-01-30T06:10:12;102297.75;;;7.03;100.00
73651;BME280;61944;52.538;6.108;2024-01-30T06:12:38;102288.88;;;7.01;100.00
73651;BME280;61944;52.538;6.108;2024-01-30T06:15:04;102283.81;;;7.03;100.00
73651;BME280;61944;52.538;6.108;2024-01-30T06:17:29;102277.13;;;7.04;100.00
73651;BME280;61944;52.538;6.108;2024-01-30T06:19:54;102279.41;;;7.02;100.00
73651;BME280;61944;52.538;6.108;2024-01-30T06:22:20;102282.34;;;7.06;100.00
73651;BME280;61944;52.538;6.108;2024-01-30T06:24:45;102304.81;;;7.09;100.00
73651;BME280;61944;52.538;6.108;2024-01-30T06:27:13;102285.97;;;7.06;100.00
73651;BME280;61944;52.538;6.108;2024-01-30T06:29:39;102281.03;;;7.03;100.00
73651;BME280;61944;52.538;6.108;2024-01-30T06:32:05;102269.28;;;7.06;100.00
73651;BME280;61944;52.538;6.108;2024-01-30T06:34:30;102270.91;;;7.07;100.00
73651;BME280;61944;52.538;6.108;2024-01-30T06:36:56;102260.97;;;7.15;100.00
73651;BME280;61944;52.538;6.108;2024-01-30T06:39:21;102269.63;;;7.13;100.00
73651;BME280;61944;52.538;6.108;2024-01-30T06:41:46;102267.50;;;7.10;100.00
73651;BME280;61944;52.538;6.108;2024-01-30T06:44:12;102274.78;;;7.86;100.00
73651;BME280;61944;52.538;6.108;2024-01-30T06:46:38;102283.25;;;7.64;100.00
73651;BME280;61944;52.538;6.108;2024-01-30T06:49:03;102280.56;;;7.41;100.00
73651;BME280;61944;52.538;6.108;2024-01-30T06:51:29;102300.34;;;7.31;100.00
73651;BME280;61944;52.538;6.108;2024-01-30T06:53:54;102300.22;;;7.36;100.00
73651;BME280;61944;52.538;6.108;2024-01-30T06:56:19;102296.91;;;7.34;100.00
73651;BME280;61944;52.538;6.108;2024-01-30T06:58:52;102285.78;;;7.34;100.00
73651;BME280;61944;52.538;6.108;2024-01-30T07:01:17;102298.06;;;7.33;100.00
73651;BME280;61944;52.538;6.108;2024-01-30T07:03:43;102300.84;;;7.33;100.00
73651;BME280;61944;52.538;6.108;2024-01-30T07:06:09;102283.31;;;7.32;100.00
73651;BME280;61944;52.538;6.108;2024-01-30T07:08:36;102283.66;;;7.40;100.00
73651;BME280;61944;52.538;6.108;2024-01-30T07:11:02;102293.03;;;8.01;100.00
73651;BME280;61944;52.538;6.108;2024-01-30T07:13:27;102279.81;;;7.67;100.00
73651;BME280;61944;52.538;6.108;2024-01-30T07:15:53;102276.31;;;7.52;100.00
73651;BME280;61944;52.538;6.108;2024-01-30T07:18:19;102285.00;;;7.42;100.00
73651;BME280;61944;52.538;6.108;2024-01-30T07:20:44;102284.66;;;7.44;100.00
73651;BME280;61944;52.538;6.108;2024-01-30T07:23:15;102297.16;;;7.46;100.00
73651;BME280;61944;52.538;6.108;2024-01-30T07:25:42;102296.47;;;7.41;100.00
73651;BME280;61944;52.538;6.108;2024-01-30T07:28:08;102301.56;;;7.47;100.00
73651;BME280;61944;52.538;6.108;2024-01-30T07:30:42;102303.22;;;7.48;100.00
73651;BME280;61944;52.538;6.108;2024-01-30T07:33:07;102298.28;;;7.45;100.00
73651;BME280;61944;52.538;6.108;2024-01-30T07:35:34;102305.13;;;7.39;100.00
73651;BME280;61944;52.538;6.108;2024-01-30T07:37:59;102306.28;;;7.38;100.00
73651;BME280;61944;52.538;6.108;2024-01-30T07:40:24;102298.94;;;7.42;100.00
73651;BME280;61944;52.538;6.108;2024-01-30T07:42:49;102302.22;;;7.44;100.00
73651;BME280;61944;52.538;6.108;2024-01-30T07:45:18;102310.75;;;7.57;100.00
73651;BME280;61944;52.538;6.108;2024-01-30T07:47:50;102303.88;;;7.54;100.00
73651;BME280;61944;52.538;6.108;2024-01-30T07:50:16;102311.59;;;7.57;100.00
73651;BME280;61944;52.538;6.108;2024-01-30T07:52:43;102293.22;;;7.56;100.00
73651;BME280;61944;52.538;6.108;2024-01-30T07:55:08;102289.47;;;7.61;100.00
73651;BME280;61944;52.538;6.108;2024-01-30T07:57:34;102295.50;;;7.54;100.00
73651;BME280;61944;52.538;6.108;2024-01-30T08:00:00;102314.03;;;7.59;100.00
73651;BME280;61944;52.538;6.108;2024-01-30T08:02:26;102300.13;;;7.59;100.00
73651;BME280;61944;52.538;6.108;2024-01-30T08:04:51;102300.97;;;7.59;100.00
73651;BME280;61944;52.538;6.108;2024-01-30T08:07:16;102320.28;;;7.56;100.00
73651;BME280;61944;52.538;6.108;2024-01-30T08:09:43;102330.44;;;7.60;100.00
73651;BME280;61944;52.538;6.108;2024-01-30T08:12:08;102320.28;;;7.56;100.00
73651;BME280;61944;52.538;6.108;2024-01-30T08:14:34;102321.13;;;7.65;100.00
73651;BME280;61944;52.538;6.108;2024-01-30T08:16:59;102326.69;;;7.65;100.00
73651;BME280;61944;52.538;6.108;2024-01-30T08:19:24;102328.84;;;7.68;100.00
73651;BME280;61944;52.538;6.108;2024-01-30T08:21:50;102323.78;;;7.70;100.00
73651;BME280;61944;52.538;6.108;2024-01-30T08:24:15;102328.66;;;7.64;100.00
73651;BME280;61944;52.538;6.108;2024-01-30T08:26:40;102322.00;;;7.74;100.00
73651;BME280;61944;52.538;6.108;2024-01-30T08:29:06;102326.91;;;7.77;100.00
73651;BME280;61944;52.538;6.108;2024-01-30T08:31:32;102330.16;;;7.70;100.00
73651;BME280;61944;52.538;6.108;2024-01-30T08:33:58;102332.47;;;7.77;100.00
73651;BME280;61944;52.538;6.108;2024-01-30T08:36:23;102330.50;;;7.78;100.00
73651;BME280;61944;52.538;6.108;2024-01-30T08:38:49;102332.84;;;7.84;100.00
73651;BME280;61944;52.538;6.108;2024-01-30T08:41:14;102333.97;;;7.83;100.00
73651;BME280;61944;52.538;6.108;2024-01-30T08:43:40;102345.94;;;7.92;100.00
73651;BME280;61944;52.538;6.108;2024-01-30T08:46:05;102338.44;;;8.02;100.00
73651;BME280;61944;52.538;6.108;2024-01-30T08:48:31;102342.38;;;8.01;100.00
73651;BME280;61944;52.538;6.108;2024-01-30T08:50:56;102338.28;;;8.07;100.00
73651;BME280;61944;52.538;6.108;2024-01-30T08:53:21;102333.22;;;8.09;100.00
73651;BME280;61944;52.538;6.108;2024-01-30T08:55:47;102335.06;;;8.22;100.00
73651;BME280;61944;52.538;6.108;2024-01-30T08:58:12;102340.47;;;8.27;100.00
73651;BME280;61944;52.538;6.108;2024-01-30T09:00:38;102349.16;;;8.26;100.00
73651;BME280;61944;52.538;6.108;2024-01-30T09:03:03;102344.41;;;8.35;100.00
73651;BME280;61944;52.538;6.108;2024-01-30T09:05:29;102346.88;;;8.45;100.00
73651;BME280;61944;52.538;6.108;2024-01-30T09:07:55;102345.75;;;8.55;100.00
73651;BME280;61944;52.538;6.108;2024-01-30T09:10:20;102345.13;;;8.58;100.00
73651;BME280;61944;52.538;6.108;2024-01-30T09:12:46;102345.28;;;8.79;100.00
73651;BME280;61944;52.538;6.108;2024-01-30T09:15:11;102349.69;;;8.89;100.00
73651;BME280;61944;52.538;6.108;2024-01-30T09:17:37;102348.66;;;9.02;100.00
73651;BME280;61944;52.538;6.108;2024-01-30T09:20:02;102346.00;;;9.14;100.00
73651;BME280;61944;52.538;6.108;2024-01-30T09:22:28;102347.91;;;9.40;100.00
73651;BME280;61944;52.538;6.108;2024-01-30T09:24:53;102347.41;;;9.38;100.00
73651;BME280;61944;52.538;6.108;2024-01-30T09:27:18;102355.75;;;9.55;100.00
73651;BME280;61944;52.538;6.108;2024-01-30T09:29:44;102353.44;;;9.57;100.00
73651;BME280;61944;52.538;6.108;2024-01-30T09:32:09;102349.41;;;9.38;100.00
73651;BME280;61944;52.538;6.108;2024-01-30T09:34:35;102338.31;;;9.59;100.00
73651;BME280;61944;52.538;6.108;2024-01-30T09:37:00;102354.81;;;9.81;100.00
73651;BME280;61944;52.538;6.108;2024-01-30T09:39:26;102354.44;;;9.62;100.00
73651;BME280;61944;52.538;6.108;2024-01-30T09:42:00;102350.78;;;9.70;100.00
73651;BME280;61944;52.538;6.108;2024-01-30T09:44:28;102353.03;;;9.76;100.00
73651;BME280;61944;52.538;6.108;2024-01-30T09:46:55;102354.13;;;9.93;100.00
73651;BME280;61944;52.538;6.108;2024-01-30T09:49:20;102359.44;;;9.77;100.00
73651;BME280;61944;52.538;6.108;2024-01-30T09:51:50;102356.38;;;9.70;100.00
73651;BME280;61944;52.538;6.108;2024-01-30T09:54:15;102358.25;;;9.87;100.00
73651;BME280;61944;52.538;6.108;2024-01-30T09:56:41;102347.56;;;9.89;100.00
73651;BME280;61944;52.538;6.108;2024-01-30T09:59:06;102353.38;;;10.05;100.00
73651;BME280;61944;52.538;6.108;2024-01-30T10:01:34;102365.72;;;10.04;100.00
73651;BME280;61944;52.538;6.108;2024-01-30T10:04:00;102354.25;;;9.96;100.00
73651;BME280;61944;52.538;6.108;2024-01-30T10:06:26;102369.53;;;9.99;100.00
73651;BME280;61944;52.538;6.108;2024-01-30T10:08:52;102370.00;;;10.01;100.00
73651;BME280;61944;52.538;6.108;2024-01-30T10:11:17;102373.09;;;10.08;100.00
73651;BME280;61944;52.538;6.108;2024-01-30T10:13:42;102360.13;;;10.04;100.00
73651;BME280;61944;52.538;6.108;2024-01-30T10:16:08;102361.44;;;10.06;100.00
73651;BME280;61944;52.538;6.108;2024-01-30T10:18:33;102362.59;;;10.26;100.00
73651;BME280;61944;52.538;6.108;2024-01-30T10:20:59;102361.22;;;10.11;100.00
73651;BME280;61944;52.538;6.108;2024-01-30T10:23:27;102369.09;;;10.48;100.00
73651;BME280;61944;52.538;6.108;2024-01-30T10:25:54;102377.41;;;10.35;100.00
73651;BME280;61944;52.538;6.108;2024-01-30T10:28:19;102366.59;;;10.25;100.00
73651;BME280;61944;52.538;6.108;2024-01-30T10:30:46;102378.50;;;10.13;100.00
73651;BME280;61944;52.538;6.108;2024-01-30T10:33:12;102369.56;;;10.20;100.00
73651;BME280;61944;52.538;6.108;2024-01-30T10:35:37;102369.50;;;10.37;100.00
73651;BME280;61944;52.538;6.108;2024-01-30T10:38:03;102367.94;;;10.19;100.00
73651;BME280;61944;52.538;6.108;2024-01-30T10:40:31;102376.09;;;10.33;100.00
73651;BME280;61944;52.538;6.108;2024-01-30T10:43:01;102374.41;;;10.41;100.00
73651;BME280;61944;52.538;6.108;2024-01-30T10:45:28;102375.09;;;10.37;100.00
73651;BME280;61944;52.538;6.108;2024-01-30T10:47:55;102386.06;;;10.43;100.00
73651;BME280;61944;52.538;6.108;2024-01-30T10:50:24;102382.94;;;10.44;100.00
73651;BME280;61944;52.538;6.108;2024-01-30T10:52:50;102383.97;;;10.40;100.00
73651;BME280;61944;52.538;6.108;2024-01-30T10:55:18;102385.31;;;10.33;100.00
73651;BME280;61944;52.538;6.108;2024-01-30T10:57:43;102374.94;;;10.34;100.00
73651;BME280;61944;52.538;6.108;2024-01-30T11:00:10;102380.69;;;10.37;100.00
73651;BME280;61944;52.538;6.108;2024-01-30T11:02:41;102388.13;;;10.33;100.00
73651;BME280;61944;52.538;6.108;2024-01-30T11:05:08;102380.28;;;10.48;100.00
73651;BME280;61944;52.538;6.108;2024-01-30T11:07:34;102386.56;;;10.45;100.00
73651;BME280;61944;52.538;6.108;2024-01-30T11:10:02;102388.06;;;10.42;100.00
73651;BME280;61944;52.538;6.108;2024-01-30T11:12:29;102388.22;;;10.46;100.00
73651;BME280;61944;52.538;6.108;2024-01-30T11:15:04;102394.28;;;10.48;100.00
73651;BME280;61944;52.538;6.108;2024-01-30T11:17:59;102403.75;;;10.34;100.00
73651;BME280;61944;52.538;6.108;2024-01-30T11:20:27;102402.06;;;10.42;100.00
73651;BME280;61944;52.538;6.108;2024-01-30T11:22:56;102391.28;;;10.53;100.00
73651;BME280;61944;52.538;6.108;2024-01-30T11:25:23;102395.91;;;10.49;100.00
73651;BME280;61944;52.538;6.108;2024-01-30T11:27:53;102387.31;;;10.54;100.00
73651;BME280;61944;52.538;6.108;2024-01-30T11:30:29;102386.81;;;10.52;100.00
73651;BME280;61944;52.538;6.108;2024-01-30T11:33:06;102383.03;;;10.56;100.00
73651;BME280;61944;52.538;6.108;2024-01-30T11:38:04;102399.69;;;10.53;100.00
73651;BME280;61944;52.538;6.108;2024-01-30T11:40:30;102393.81;;;10.46;100.00
73651;BME280;61944;52.538;6.108;2024-01-30T11:42:58;102388.13;;;10.33;100.00
73651;BME280;61944;52.538;6.108;2024-01-30T11:45:24;102389.28;;;10.32;100.00
73651;BME280;61944;52.538;6.108;2024-01-30T11:47:49;102389.28;;;10.32;100.00
73651;BME280;61944;52.538;6.108;2024-01-30T11:50:15;102386.78;;;10.40;100.00
73651;BME280;61944;52.538;6.108;2024-01-30T11:52:41;102388.63;;;10.35;100.00
73651;BME280;61944;52.538;6.108;2024-01-30T11:55:08;102395.56;;;10.29;100.00
73651;BME280;61944;52.538;6.108;2024-01-30T11:57:34;102396.19;;;10.26;100.00
73651;BME280;61944;52.538;6.108;2024-01-30T12:00:06;102392.25;;;10.27;100.00
73651;BME280;61944;52.538;6.108;2024-01-30T12:02:35;102402.13;;;10.33;100.00
73651;BME280;61944;52.538;6.108;2024-01-30T12:05:07;102396.78;;;10.41;100.00
73651;BME280;61944;52.538;6.108;2024-01-30T12:07:33;102391.88;;;10.37;100.00
73651;BME280;61944;52.538;6.108;2024-01-30T12:09:58;102400.28;;;10.37;100.00
73651;BME280;61944;52.538;6.108;2024-01-30T12:12:25;102396.78;;;10.41;100.00
73651;BME280;61944;52.538;6.108;2024-01-30T12:14:51;102402.59;;;10.35;100.00
73651;BME280;61944;52.538;6.108;2024-01-30T12:17:43;102390.94;;;10.33;100.00
73651;BME280;61944;52.538;6.108;2024-01-30T12:20:10;102407.38;;;10.26;100.00
73651;BME280;61944;52.538;6.108;2024-01-30T12:22:43;102399.47;;;10.28;100.00
73651;BME280;61944;52.538;6.108;2024-01-30T12:25:10;102416.81;;;10.22;100.00
73651;BME280;61944;52.538;6.108;2024-01-30T12:27:37;102409.00;;;10.06;100.00
73651;BME280;61944;52.538;6.108;2024-01-30T12:30:06;102431.06;;;9.99;100.00
73651;BME280;61944;52.538;6.108;2024-01-30T12:32:37;102426.97;;;9.96;100.00
73651;BME280;61944;52.538;6.108;2024-01-30T12:35:07;102433.56;;;9.92;100.00
73651;BME280;61944;52.538;6.108;2024-01-30T12:37:32;102434.88;;;9.94;100.00
73651;BME280;61944;52.538;6.108;2024-01-30T12:39:58;102445.94;;;9.91;100.00
73651;BME280;61944;52.538;6.108;2024-01-30T12:42:26;102448.38;;;9.92;100.00
73651;BME280;61944;52.538;6.108;2024-01-30T12:44:52;102446.75;;;9.91;100.00